Latest Coastal Weather Observations for Hay Point

IDQ60701

Issued at 5:32 pm EST Wednesday 8 February 2023 (issued every 10 minutes, with the page automatically refreshed every 10 minutes)

About coastal observations | Map of coastal stations | Coastal observations for QLD | Marine services | Other Formats
Station Details ID: 033317 Name: HAY POINT Lat: -21.29 Lon: 149.30 Height: 7.0 m
Data from the previous 72 hours. | See also: Recent months for locations in Queensland
Date/Time
EST
Wind Sea
Height
m
Swell Vis
km
Cloud Weather Temp
°C
Press
MSL
hPa
Rain since
9am
mm
Dir  Spd
kts
Gust
kts
Height
m
Period
s
Dir
08/05:30pm SSE 27 34 - - - - - - - - - -
08/05:03pm SE 26 36 - - - - - - - - - -
08/05:00pm SE 26 32 - - - - - - - - - -
08/04:30pm SSE 28 33 - - - - - - - - - -
08/04:15pm SE 28 35 - - - - - - - - - -
08/04:00pm SSE 20 33 - - - - - - - - - -
08/03:59pm SSE 20 33 - - - - - - - - - -
08/03:30pm SSE 27 32 - - - - - - - - - -
08/03:15pm SSE 29 40 - - - - - - - - - -
08/03:05pm SE 27 37 - - - - - - - - - -
08/03:00pm SE 29 37 - - - - - - - - - -
08/02:30pm SE 25 32 - - - - - - - - - -
08/02:00pm SE 26 33 - - - - - - - - - -
08/01:30pm SSE 22 28 - - - - - - - - - -
08/01:00pm SSE 23 28 - - - - - - - - - -
08/12:30pm SSE 22 27 - - - - - - - - - -
08/12:00pm SSE 23 28 - - - - - - - - - -
08/11:30am SSE 21 28 - - - - - - - - - -
08/11:00am SSE 21 31 - - - - - - - - - -
08/10:52am SSE 21 31 - - - - - - - - - -
08/10:30am SSE 21 27 - - - - - - - - - -
08/10:00am SSE 21 26 - - - - - - - - - -
08/09:30am SSE 20 26 - - - - - - - - - -
08/09:00am SSE 19 26 - - - - - - - - - -
08/08:30am SSE 17 23 - - - - - - - - - -
08/08:00am S 17 21 - - - - - - - - - -
08/07:30am S 16 21 - - - - - - - - - -
08/07:00am S 17 22 - - - - - - - - - -
08/06:30am S 16 21 - - - - - - - - - -
08/06:00am S 17 25 - - - - - - - - - -
08/05:55am SSE 19 27 - - - - - - - - - -
08/05:30am SSE 23 29 - - - - - - - - - -
08/05:00am SE 23 28 - - - - - - - - - -
08/04:30am SE 22 28 - - - - - - - - - -
08/04:00am SE 19 26 - - - - - - - - - -
08/03:30am SE 20 28 - - - - - - - - - -
08/03:00am SE 21 28 - - - - - - - - - -
08/02:30am SE 22 28 - - - - - - - - - -
08/02:00am SE 21 27 - - - - - - - - - -
08/01:30am SE 21 28 - - - - - - - - - -
08/01:00am SE 22 29 - - - - - - - - - -
08/12:30am SE 22 29 - - - - - - - - - -
08/12:00am SE 21 27 - - - - - - - - - -
 
Date/Time
EST
Wind Sea
Height
m
Swell Vis
km
Cloud Weather Temp
°C
Press
MSL
hPa
Rain since
9am
mm
Dir  Spd
kts
Gust
kts
Height
m
Period
s
Dir
07/11:34pm SE 19 30 - - - - - - - - - -
07/11:30pm SE 22 30 - - - - - - - - - -
07/11:00pm SE 23 30 - - - - - - - - - -
07/10:30pm SE 22 29 - - - - - - - - - -
07/10:00pm SE 23 28 - - - - - - - - - -
07/09:30pm SE 21 27 - - - - - - - - - -
07/09:00pm SE 21 27 - - - - - - - - - -
07/08:30pm SE 23 27 - - - - - - - - - -
07/08:00pm SSE 25 30 - - - - - - - - - -
07/07:30pm SE 25 31 - - - - - - - - - -
07/07:00pm SE 23 30 - - - - - - - - - -
07/06:30pm SE 21 28 - - - - - - - - - -
07/06:00pm SE 20 29 - - - - - - - - - -
07/05:30pm SE 22 27 - - - - - - - - - -
07/05:00pm SE 20 29 - - - - - - - - - -
07/04:56pm SE 22 32 - - - - - - - - - -
07/04:30pm SE 20 26 - - - - - - - - - -
07/04:00pm SE 20 27 - - - - - - - - - -
07/03:33pm SE 21 31 - - - - - - - - - -
07/03:30pm SE 22 31 - - - - - - - - - -
07/03:22pm SE 20 30 - - - - - - - - - -
07/03:00pm SE 20 26 - - - - - - - - - -
07/02:30pm SE 17 22 - - - - - - - - - -
07/02:00pm SSE 20 27 - - - - - - - - - -
07/01:30pm SSE 19 26 - - - - - - - - - -
07/01:00pm SSE 20 24 - - - - - - - - - -
07/12:30pm SE 18 22 - - - - - - - - - -
07/12:00pm SE 20 27 - - - - - - - - - -
07/11:30am SSE 21 26 - - - - - - - - - -
07/11:00am SSE 22 26 - - - - - - - - - -
07/10:30am SSE 23 27 - - - - - - - - - -
07/10:00am SSE 23 27 - - - - - - - - - -
07/09:30am SSE 17 21 - - - - - - - - - -
07/09:00am SSE 20 26 - - - - - - - - - -
07/08:30am SSE 20 24 - - - - - - - - - -
07/08:00am SSE 20 24 - - - - - - - - - -
07/07:30am SSE 18 22 - - - - - - - - - -
07/07:00am SE 16 19 - - - - - - - - - -
07/06:33am SE 20 31 - - - - - - - - - -
07/06:30am SE 21 31 - - - - - - - - - -
07/06:27am SE 22 31 - - - - - - - - - -
07/06:00am SE 15 20 - - - - - - - - - -
07/05:30am SE 16 22 - - - - - - - - - -
07/05:00am SE 14 19 - - - - - - - - - -
07/04:30am ESE 17 21 - - - - - - - - - -
07/04:00am SE 16 22 - - - - - - - - - -
07/03:30am ESE 15 21 - - - - - - - - - -
07/03:00am SE 15 19 - - - - - - - - - -
07/02:30am SE 14 18 - - - - - - - - - -
07/02:00am ESE 16 20 - - - - - - - - - -
07/01:30am SE 19 24 - - - - - - - - - -
07/01:00am ESE 18 23 - - - - - - - - - -
07/12:30am ESE 20 24 - - - - - - - - - -
07/12:00am ESE 20 28 - - - - - - - - - -
 
Date/Time
EST
Wind Sea
Height
m
Swell Vis
km
Cloud Weather Temp
°C
Press
MSL
hPa
Rain since
9am
mm
Dir  Spd
kts
Gust
kts
Height
m
Period
s
Dir
06/11:30pm SE 20 26 - - - - - - - - - -
06/11:00pm SE 19 26 - - - - - - - - - -
06/10:30pm SE 17 22 - - - - - - - - - -
06/10:00pm SE 13 18 - - - - - - - - - -
06/09:30pm SE 13 17 - - - - - - - - - -
06/09:00pm ESE 25 28 - - - - - - - - - -
06/08:30pm ESE 17 20 - - - - - - - - - -
06/08:00pm ESE 14 18 - - - - - - - - - -
06/07:30pm ESE 17 20 - - - - - - - - - -
06/07:00pm SE 15 19 - - - - - - - - - -
06/06:30pm ESE 15 18 - - - - - - - - - -
06/06:00pm ESE 14 19 - - - - - - - - - -
06/05:30pm SE 13 16 - - - - - - - - - -
06/05:00pm ESE 13 17 - - - - - - - - - -
06/04:30pm ESE 14 16 - - - - - - - - - -
06/04:00pm ESE 16 18 - - - - - - - - - -
06/03:30pm ESE 15 17 - - - - - - - - - -
06/03:00pm SE 14 19 - - - - - - - - - -
06/02:30pm SE 14 20 - - - - - - - - - -
06/02:00pm SE 15 19 - - - - - - - - - -
06/01:30pm SE 17 21 - - - - - - - - - -
06/01:00pm SE 16 21 - - - - - - - - - -
06/12:30pm SE 16 19 - - - - - - - - - -
06/12:00pm SE 15 20 - - - - - - - - - -
06/11:30am SE 15 18 - - - - - - - - - -
06/11:00am SE 14 18 - - - - - - - - - -
06/10:30am SE 14 18 - - - - - - - - - -
06/10:00am SE 15 19 - - - - - - - - - -
06/09:30am SE 14 18 - - - - - - - - - -
06/09:00am SE 15 18 - - - - - - - - - -
06/08:30am SE 12 16 - - - - - - - - - -
06/08:00am SE 13 17 - - - - - - - - - -
06/07:30am SE 15 19 - - - - - - - - - -
06/07:00am SE 13 18 - - - - - - - - - -
06/06:30am SE 14 18 - - - - - - - - - -
06/06:00am SSE 15 18 - - - - - - - - - -
06/05:30am SE 13 17 - - - - - - - - - -
06/05:00am SE 14 17 - - - - - - - - - -
06/04:30am ESE 15 19 - - - - - - - - - -
06/04:00am ESE 14 17 - - - - - - - - - -
06/03:30am ESE 16 18 - - - - - - - - - -
06/03:00am ESE 14 18 - - - - - - - - - -
06/02:30am ESE 14 20 - - - - - - - - - -
06/02:00am ESE 14 17 - - - - - - - - - -
06/01:30am ESE 13 15 - - - - - - - - - -
06/01:00am ESE 14 16 - - - - - - - - - -
06/12:30am ESE 14 16 - - - - - - - - - -
06/12:00am E 13 16 - - - - - - - - - -
 
Date/Time
EST
Wind Sea
Height
m
Swell Vis
km
Cloud Weather Temp
°C
Press
MSL
hPa
Rain since
9am
mm
Dir  Spd
kts
Gust
kts
Height
m
Period
s
Dir
05/11:30pm ESE 11 15 - - - - - - - - - -
05/11:00pm E 11 14 - - - - - - - - - -
05/10:30pm E 11 12 - - - - - - - - - -
05/10:00pm E 14 15 - - - - - - - - - -
05/09:30pm E 13 15 - - - - - - - - - -
05/09:00pm E 15 17 - - - - - - - - - -
05/08:30pm E 15 17 - - - - - - - - - -
05/08:00pm E 17 19 - - - - - - - - - -
05/07:30pm E 17 18 - - - - - - - - - -
05/07:00pm E 16 19 - - - - - - - - - -
05/06:30pm E 15 17 - - - - - - - - - -
05/06:00pm E 14 16 - - - - - - - - - -

Other formats

Comma delimited format used in spreadsheet applications
http://www.bom.gov.au/fwo/IDQ60701/IDQ60701.99367.axf

JavaScript Object Notation format (JSON) in row-major order
http://www.bom.gov.au/fwo/IDQ60701/IDQ60701.99367.json

Data quality

Most of these data are generated automatically and are frequently updated. Quality checks on data are not normally performed. It is possible for incorrect values to appear. Refer to information at About Latest Weather Observations and please check the disclaimer before using these data.